Time;durP1;ratioP1;P1;durP2;ratioP2;P2;SDS_P1;SDS_P2;PMS_P1;PMS_P2;Temp;Humidity;BMP_temperature;BMP_pressure;BME280_temperature;BME280_humidity;BME280_pressure;Samples;Min_cycle;Max_cycle;Signal;HPM_P1;HPM_P2
2022/07/17 04:04:19;;;;;;;4.60;3.43;;;13.40;99.90;;;;;;5610848;22;20478;-66
2022/07/17 04:06:45;;;;;;;4.70;3.73;;;13.40;99.90;;;;;;5031976;28;20772;-66
2022/07/17 04:09:10;;;;;;;3.63;3.33;;;13.40;99.90;;;;;;5032261;28;20416;-66
2022/07/17 04:11:36;;;;;;;3.73;3.53;;;13.40;99.90;;;;;;5018855;28;20188;-67
2022/07/17 04:14:02;;;;;;;3.93;3.63;;;13.40;99.90;;;;;;5010392;28;20200;-67
2022/07/17 04:16:27;;;;;;;3.90;3.60;;;13.50;99.90;;;;;;4993775;28;20195;-67
2022/07/17 04:18:53;;;;;;;3.07;2.87;;;13.50;99.90;;;;;;4994102;28;20625;-65
2022/07/17 04:21:19;;;;;;;4.40;4.10;;;13.50;99.90;;;;;;4994258;28;20658;-66
2022/07/17 04:23:44;;;;;;;4.00;3.70;;;13.40;99.90;;;;;;4994813;28;20206;-67
2022/07/17 04:26:10;;;;;;;4.10;3.67;;;13.40;99.90;;;;;;4993999;28;20950;-67
2022/07/17 04:28:36;;;;;;;4.00;3.70;;;13.40;99.90;;;;;;4993946;28;20234;-68
2022/07/17 04:31:02;;;;;;;4.20;3.90;;;13.50;99.90;;;;;;4993840;28;20253;-67
2022/07/17 04:33:27;;;;;;;3.93;3.63;;;13.60;99.90;;;;;;4993452;28;20560;-68
2022/07/17 04:35:53;;;;;;;3.90;3.60;;;13.70;99.90;;;;;;5006413;28;20423;-67
2022/07/17 04:38:19;;;;;;;3.83;3.63;;;13.80;99.90;;;;;;5013761;28;20636;-66
2022/07/17 04:40:46;;;;;;;4.80;4.00;;;14.00;99.90;;;;;;5013293;28;20261;-67
2022/07/17 04:43:12;;;;;;;3.60;3.30;;;14.10;99.90;;;;;;5011804;28;20188;-68
2022/07/17 04:45:37;;;;;;;3.73;3.43;;;14.30;99.90;;;;;;5013355;28;20405;-65
2022/07/17 04:48:03;;;;;;;3.77;3.50;;;14.40;99.90;;;;;;5009858;28;20516;-65
2022/07/17 04:50:29;;;;;;;3.87;3.57;;;14.50;99.90;;;;;;5013254;28;20187;-65
2022/07/17 04:52:55;;;;;;;4.10;3.83;;;14.80;99.90;;;;;;5013080;28;20408;-65
2022/07/17 04:55:20;;;;;;;3.97;3.57;;;15.00;99.90;;;;;;5013288;28;20187;-66
2022/07/17 04:57:46;;;;;;;4.07;3.27;;;15.20;99.90;;;;;;5013180;28;20174;-67
2022/07/17 05:00:12;;;;;;;4.30;3.40;;;15.30;99.90;;;;;;5003154;28;20298;-67
2022/07/17 05:02:38;;;;;;;3.67;3.37;;;15.60;99.90;;;;;;4993304;28;20646;-66
2022/07/17 05:05:05;;;;;;;3.87;3.57;;;15.80;99.90;;;;;;4992123;28;20494;-65
2022/07/17 05:07:30;;;;;;;4.00;3.60;;;16.20;99.90;;;;;;4993722;28;20462;-67
2022/07/17 05:09:56;;;;;;;4.03;3.63;;;16.50;99.90;;;;;;4998039;28;20424;-65
2022/07/17 05:12:22;;;;;;;3.70;3.40;;;16.70;99.90;;;;;;5013064;28;20203;-66
2022/07/17 05:14:47;;;;;;;6.20;3.70;;;16.80;99.90;;;;;;5012917;28;20225;-66
2022/07/17 05:17:13;;;;;;;5.43;3.90;;;16.80;99.90;;;;;;5013030;28;20270;-65
2022/07/17 05:19:39;;;;;;;3.57;3.37;;;16.80;99.90;;;;;;5013098;28;20563;-66
2022/07/17 05:22:05;;;;;;;3.93;3.67;;;16.70;99.90;;;;;;5013123;28;20410;-64
2022/07/17 05:24:32;;;;;;;4.17;3.87;;;16.60;99.90;;;;;;5007056;28;20196;-67
2022/07/17 05:26:57;;;;;;;3.83;3.50;;;16.70;99.90;;;;;;4993800;28;20779;-66
2022/07/17 05:29:23;;;;;;;4.00;3.70;;;16.60;99.90;;;;;;4996910;28;20410;-65
2022/07/17 05:31:49;;;;;;;4.63;3.90;;;16.50;99.90;;;;;;4996846;28;20303;-67
2022/07/17 05:34:14;;;;;;;4.40;3.90;;;16.50;99.90;;;;;;4996570;28;20191;-65
2022/07/17 05:36:40;;;;;;;3.83;3.53;;;16.60;99.90;;;;;;4996913;28;20174;-67
2022/07/17 05:39:06;;;;;;;4.10;3.80;;;16.60;99.90;;;;;;5013764;28;20189;-65
2022/07/17 05:41:31;;;;;;;10.63;4.03;;;16.70;99.90;;;;;;5016330;28;20178;-65
2022/07/17 05:43:57;;;;;;;4.87;4.37;;;16.80;99.90;;;;;;5015810;28;20536;-67
2022/07/17 05:46:23;;;;;;;4.23;3.83;;;16.80;99.90;;;;;;5016291;28;20175;-67
2022/07/17 05:48:48;;;;;;;4.57;4.20;;;16.90;99.90;;;;;;5016320;28;20271;-65
2022/07/17 05:51:14;;;;;;;5.80;5.30;;;16.90;99.90;;;;;;5016237;28;20673;-66
2022/07/17 05:53:39;;;;;;;4.27;3.97;;;17.10;99.90;;;;;;4999626;28;20206;-65
2022/07/17 05:56:05;;;;;;;4.20;3.90;;;17.20;99.90;;;;;;4996444;28;20180;-65
2022/07/17 05:58:31;;;;;;;4.00;3.70;;;17.40;99.50;;;;;;4995152;28;20260;-65
2022/07/17 06:00:56;;;;;;;3.53;3.23;;;17.50;99.60;;;;;;4996424;28;20439;-66
2022/07/17 06:03:22;;;;;;;4.33;3.93;;;17.70;98.20;;;;;;4995977;28;20208;-65
2022/07/17 06:05:48;;;;;;;3.87;3.53;;;17.90;97.10;;;;;;5003409;28;20593;-65
2022/07/17 06:08:13;;;;;;;4.30;3.90;;;18.10;96.60;;;;;;5015966;28;20181;-66
2022/07/17 06:10:39;;;;;;;3.33;3.13;;;18.20;95.90;;;;;;5015847;28;20191;-67
2022/07/17 06:13:05;;;;;;;3.63;3.33;;;18.20;96.30;;;;;;5015343;28;20238;-67
2022/07/17 06:15:31;;;;;;;3.83;3.53;;;18.30;96.20;;;;;;5015827;28;20644;-65
2022/07/17 06:18:03;;;;;;;3.23;3.00;;;18.40;95.60;;;;;;5015781;28;20439;-67
2022/07/17 06:20:29;;;;;;;3.40;3.20;;;18.40;95.50;;;;;;5008439;28;20265;-65
2022/07/17 06:22:55;;;;;;;3.83;3.50;;;18.60;95.40;;;;;;4995554;28;20470;-65
2022/07/17 06:25:21;;;;;;;3.37;3.13;;;18.80;94.80;;;;;;4995806;28;20405;-65
2022/07/17 06:27:47;;;;;;;3.03;2.83;;;18.80;94.20;;;;;;4994391;28;20430;-67
2022/07/17 06:30:14;;;;;;;3.33;3.13;;;18.90;93.50;;;;;;4995839;28;20176;-65
2022/07/17 06:32:40;;;;;;;3.17;2.90;;;19.00;92.70;;;;;;4995459;28;20562;-65
2022/07/17 06:35:06;;;;;;;3.07;2.87;;;19.00;93.00;;;;;;5015208;28;20927;-65
2022/07/17 06:37:32;;;;;;;2.83;2.63;;;19.00;93.00;;;;;;5015326;28;20499;-67
2022/07/17 06:39:58;;;;;;;3.10;2.90;;;19.00;92.80;;;;;;5015136;28;20504;-65
2022/07/17 06:42:24;;;;;;;3.43;3.23;;;19.10;92.90;;;;;;5014983;28;20403;-64
2022/07/17 06:44:49;;;;;;;5.60;3.73;;;19.20;92.80;;;;;;5015156;28;20283;-66
2022/07/17 06:47:15;;;;;;;4.70;4.30;;;19.20;92.70;;;;;;5014966;28;20179;-68
2022/07/17 06:49:40;;;;;;;3.50;3.30;;;19.30;92.40;;;;;;4996738;28;20287;-67
2022/07/17 06:52:06;;;;;;;3.00;2.80;;;19.40;92.30;;;;;;4995562;28;20199;-65
2022/07/17 06:54:32;;;;;;;3.57;3.27;;;19.50;92.00;;;;;;4997865;28;20197;-64
2022/07/17 06:56:57;;;;;;;3.13;2.93;;;19.60;92.40;;;;;;5004583;28;20613;-67
2022/07/17 06:59:23;;;;;;;3.10;2.90;;;19.70;92.00;;;;;;5004305;28;20214;-66
2022/07/17 07:01:49;;;;;;;2.93;2.83;;;;;;;;;;5018288;28;20179;-66
2022/07/17 07:04:15;;;;;;;3.10;2.90;;;19.70;92.10;;;;;;5005689;28;20214;-66
2022/07/17 07:06:42;;;;;;;4.20;2.77;;;20.10;91.40;;;;;;5004458;28;20521;-67
2022/07/17 07:09:07;;;;;;;3.23;2.97;;;20.30;90.30;;;;;;5006268;28;20197;-66
2022/07/17 07:11:33;;;;;;;3.20;2.90;;;20.50;90.20;;;;;;5014564;28;20458;-66
2022/07/17 07:13:59;;;;;;;2.80;2.60;;;20.50;90.00;;;;;;5014101;28;20194;-65
2022/07/17 07:16:25;;;;;;;3.30;2.90;;;20.70;90.00;;;;;;5014678;28;20222;-69
2022/07/17 07:18:50;;;;;;;2.90;2.53;;;20.90;88.70;;;;;;5014566;28;20493;-65
2022/07/17 07:21:16;;;;;;;3.10;2.90;;;20.90;88.60;;;;;;5014043;28;20186;-67
2022/07/17 07:23:41;;;;;;;2.97;2.70;;;21.00;87.20;;;;;;5013926;28;20195;-66
2022/07/17 07:26:07;;;;;;;2.90;2.70;;;21.10;86.60;;;;;;5014539;28;20175;-66
2022/07/17 07:28:34;;;;;;;3.23;3.03;;;21.20;87.20;;;;;;5014334;28;20167;-66
2022/07/17 07:30:59;;;;;;;3.10;2.90;;;21.30;86.70;;;;;;5012581;28;20659;-67
2022/07/17 07:33:25;;;;;;;2.63;2.53;;;21.50;87.10;;;;;;5013808;28;20432;-66
2022/07/17 07:35:51;;;;;;;3.73;3.17;;;21.70;84.20;;;;;;5014052;28;20194;-67
2022/07/17 07:38:17;;;;;;;3.07;2.80;;;22.20;84.80;;;;;;5014239;28;20228;-65
2022/07/17 07:40:42;;;;;;;2.20;2.10;;;23.10;84.50;;;;;;5012349;28;20426;-68
2022/07/17 07:43:08;;;;;;;2.50;2.40;;;24.00;79.60;;;;;;4999818;28;20240;-71
2022/07/17 07:45:34;;;;;;;2.63;2.43;;;25.20;72.90;;;;;;5009634;28;20175;-70
2022/07/17 07:48:00;;;;;;;2.87;2.77;;;26.50;70.50;;;;;;5013980;28;20691;-69
2022/07/17 07:50:26;;;;;;;3.20;3.00;;;27.80;66.70;;;;;;5013226;28;20198;-70
2022/07/17 07:52:52;;;;;;;2.63;2.53;;;28.90;62.10;;;;;;5013545;28;20175;-69
2022/07/17 07:55:18;;;;;;;2.60;2.50;;;30.00;58.90;;;;;;5004028;28;20489;-69
2022/07/17 07:57:44;;;;;;;2.17;2.03;;;31.30;54.90;;;;;;4994236;28;20830;-71
2022/07/17 08:00:11;;;;;;;2.57;2.47;;;32.40;52.20;;;;;;4999683;28;20558;-71
2022/07/17 08:02:37;;;;;;;2.90;2.70;;;33.10;51.00;;;;;;5013311;28;20402;-69
2022/07/17 08:05:04;;;;;;;2.80;2.70;;;33.80;50.70;;;;;;5011972;28;20477;-69
2022/07/17 08:07:30;;;;;;;2.93;2.83;;;34.20;49.90;;;;;;5013465;28;20509;-71
2022/07/17 08:09:58;;;;;;;2.83;2.73;;;34.70;49.40;;;;;;5012741;28;20508;-73
2022/07/17 08:12:24;;;;;;;2.90;2.70;;;35.00;48.60;;;;;;5012112;28;20464;-69
2022/07/17 08:14:50;;;;;;;3.30;3.10;;;35.50;47.60;;;;;;5004525;28;20509;-69
2022/07/17 08:17:17;;;;;;;3.43;3.23;;;35.80;46.90;;;;;;4993904;28;20778;-67
2022/07/17 08:19:43;;;;;;;3.20;3.10;;;36.00;46.00;;;;;;4993536;28;20493;-68
2022/07/17 08:22:08;;;;;;;3.53;2.77;;;35.90;45.40;;;;;;4993479;28;20509;-67
2022/07/17 08:24:34;;;;;;;2.90;2.80;;;36.20;45.20;;;;;;4993570;28;20200;-70
2022/07/17 08:27:00;;;;;;;3.17;2.97;;;36.00;45.20;;;;;;4994058;28;20176;-68
2022/07/17 08:29:25;;;;;;;3.10;2.90;;;36.10;45.20;;;;;;5008570;28;20213;-68
2022/07/17 08:31:53;;;;;;;3.50;3.20;;;36.50;44.70;;;;;;5013258;28;20244;-67
2022/07/17 08:34:19;;;;;;;2.93;2.80;;;36.70;44.30;;;;;;5011655;28;20554;-68
2022/07/17 08:36:44;;;;;;;3.83;3.63;;;36.70;44.20;;;;;;5013186;28;20401;-66
2022/07/17 08:39:10;;;;;;;2.57;2.47;;;36.80;43.60;;;;;;5012465;28;20593;-66
2022/07/17 08:41:37;;;;;;;2.83;2.73;;;36.80;43.50;;;;;;5013454;28;20190;-69
2022/07/17 08:44:07;;;;;;;2.77;2.67;;;37.10;44.00;;;;;;5012080;28;20195;-68
2022/07/17 08:46:36;;;;;;;2.70;2.60;;;37.50;42.80;;;;;;5011500;28;20503;-69
2022/07/17 08:49:03;;;;;;;2.80;2.70;;;37.60;43.30;;;;;;5013166;28;20410;-64
2022/07/17 08:51:29;;;;;;;3.10;2.90;;;37.70;42.30;;;;;;5012917;28;20465;-63
2022/07/17 08:53:56;;;;;;;2.80;2.70;;;37.70;41.90;;;;;;5012653;28;20440;-65
2022/07/17 08:56:22;;;;;;;3.27;3.07;;;37.80;41.70;;;;;;5013079;28;20410;-65
2022/07/17 08:58:48;;;;;;;3.10;2.90;;;38.20;41.50;;;;;;5012311;28;20479;-66
2022/07/17 09:01:15;;;;;;;4.63;4.33;;;38.50;40.60;;;;;;5012121;28;20253;-64
2022/07/17 09:03:41;;;;;;;5.83;4.00;;;38.80;40.90;;;;;;5016115;28;20253;-63
2022/07/17 09:06:20;;;;;;;2.60;2.50;;;39.40;40.90;;;;;;5015765;28;20445;-65
2022/07/17 09:08:46;;;;;;;2.93;2.83;;;39.80;38.40;;;;;;5016798;28;20182;-66
2022/07/17 09:11:12;;;;;;;2.47;2.37;;;39.70;40.10;;;;;;5015337;28;20860;-64
2022/07/17 09:13:42;;;;;;;2.53;2.43;;;39.30;38.30;;;;;;5016390;28;20194;-63
2022/07/17 09:16:10;;;;;;;2.90;2.80;;;39.30;39.20;;;;;;5016550;28;20179;-63
2022/07/17 09:18:49;;;;;;;3.20;3.10;;;39.10;38.90;;;;;;5016375;28;20476;-67
2022/07/17 09:21:26;;;;;;;2.60;2.50;;;39.00;38.50;;;;;;5016780;28;20420;-66
2022/07/17 09:24:05;;;;;;;2.90;2.80;;;38.80;38.70;;;;;;5016219;28;20459;-66
2022/07/17 09:26:32;;;;;;;2.93;2.83;;;38.60;38.10;;;;;;5016845;28;20437;-67
2022/07/17 09:29:01;;;;;;;2.67;2.57;;;38.90;37.80;;;;;;5016701;28;20413;-66
2022/07/17 09:31:32;;;;;;;2.57;2.47;;;39.00;36.70;;;;;;5015171;28;20536;-68
2022/07/17 09:33:58;;;;;;;2.87;2.73;;;38.90;36.60;;;;;;5015649;28;20797;-66
2022/07/17 09:36:25;;;;;;;2.70;2.60;;;38.80;36.90;;;;;;5016454;28;20413;-66
2022/07/17 09:38:56;;;;;;;2.80;2.70;;;38.90;36.80;;;;;;5016096;28;20406;-68
2022/07/17 09:41:23;;;;;;;3.00;2.90;;;38.60;36.90;;;;;;5016516;28;20497;-67
2022/07/17 09:43:57;;;;;;;2.87;2.70;;;38.10;37.00;;;;;;5015809;28;20809;-67
2022/07/17 09:46:32;;;;;;;2.93;2.80;;;37.70;37.90;;;;;;5016476;28;20406;-67
2022/07/17 09:49:09;;;;;;;2.90;2.70;;;37.70;38.40;;;;;;5016099;28;20451;-69
2022/07/17 09:51:39;;;;;;;3.20;3.00;;;37.90;37.90;;;;;;5015992;28;20457;-68
2022/07/17 09:54:08;;;;;;;2.40;2.30;;;38.00;36.90;;;;;;5015773;28;20420;-68
2022/07/17 09:56:37;;;;;;;3.00;2.90;;;38.30;37.00;;;;;;5015894;28;20464;-68
2022/07/17 09:59:10;;;;;;;2.67;2.57;;;38.60;36.40;;;;;;5015901;28;20406;-66
2022/07/17 10:01:40;;;;;;;3.00;2.90;;;39.00;35.90;;;;;;5015546;28;20436;-68
2022/07/17 10:04:06;;;;;;;2.50;2.40;;;39.10;35.90;;;;;;5015079;28;20426;-70
2022/07/17 10:06:32;;;;;;;2.87;2.67;;;38.80;35.70;;;;;;5014483;28;20491;-71
2022/07/17 10:09:00;;;;;;;2.43;2.33;;;38.50;35.70;;;;;;5014547;28;20183;-70
2022/07/17 10:11:30;;;;;;;2.80;2.70;;;38.60;36.20;;;;;;5015740;28;20944;-70
2022/07/17 10:14:01;;;;;;;2.93;2.80;;;38.20;36.20;;;;;;5014811;28;20830;-71
2022/07/17 10:16:29;;;;;;;2.87;2.77;;;37.80;36.50;;;;;;5015166;28;20941;-69
2022/07/17 10:18:57;;;;;;;2.80;2.70;;;37.90;37.60;;;;;;5015855;28;20541;-69
2022/07/17 10:21:24;;;;;;;2.57;2.47;;;37.80;36.30;;;;;;5009565;28;20414;-70
2022/07/17 10:23:52;;;;;;;2.83;2.73;;;37.80;36.40;;;;;;4998991;28;20961;-69
2022/07/17 10:26:36;;;;;;;2.73;2.63;;;38.00;36.20;;;;;;5003404;28;20447;-68
2022/07/17 10:29:03;;;;;;;2.57;2.47;;;37.80;37.50;;;;;;4998369;28;20899;-67
2022/07/17 10:31:30;;;;;;;3.23;2.47;;;38.10;36.00;;;;;;5015370;28;20465;-67
2022/07/17 10:34:06;;;;;;;2.37;2.27;;;38.50;35.60;;;;;;5015051;28;20436;-68
2022/07/17 10:36:40;;;;;;;2.63;2.53;;;38.60;36.00;;;;;;5015442;28;20401;-68
2022/07/17 10:39:15;;;;;;;2.67;2.57;;;38.70;35.90;;;;;;5012979;28;20441;-66
2022/07/17 10:41:42;;;;;;;2.87;2.70;;;38.50;35.90;;;;;;5015609;28;20413;-68
2022/07/17 10:44:08;;;;;;;2.97;2.77;;;38.10;35.80;;;;;;5014602;28;20426;-68
2022/07/17 10:46:34;;;;;;;2.93;2.70;;;37.50;36.80;;;;;;5015032;28;20417;-68
2022/07/17 10:49:03;;;;;;;3.00;2.80;;;37.30;37.30;;;;;;4996611;28;20423;-68
2022/07/17 10:51:30;;;;;;;2.30;2.20;;;37.20;38.00;;;;;;4998839;28;20450;-67
2022/07/17 10:53:59;;;;;;;2.80;2.70;;;37.40;36.50;;;;;;5013954;28;20433;-67
2022/07/17 10:56:25;;;;;;;2.90;2.60;;;37.50;36.70;;;;;;5014581;28;20413;-68
2022/07/17 10:58:53;;;;;;;2.40;2.30;;;37.30;36.40;;;;;;5014733;28;20413;-67
2022/07/17 11:01:20;;;;;;;2.97;2.80;;;37.00;36.80;;;;;;5014739;28;20925;-68
2022/07/17 11:03:58;;;;;;;2.87;2.67;;;36.80;36.60;;;;;;5014362;28;20472;-68
2022/07/17 11:06:25;;;;;;;3.20;2.60;;;36.40;37.90;;;;;;5009016;28;20492;-66
2022/07/17 11:09:00;;;;;;;3.40;3.20;;;36.30;38.00;;;;;;4995063;28;20498;-66
2022/07/17 11:11:41;;;;;;;2.53;2.43;;;36.30;37.70;;;;;;4995033;28;21012;-66
2022/07/17 11:14:08;;;;;;;2.90;2.70;;;36.30;37.50;;;;;;4994691;28;20514;-67
2022/07/17 11:16:33;;;;;;;2.67;2.57;;;36.00;37.80;;;;;;4995110;28;20442;-67
2022/07/17 11:18:59;;;;;;;2.47;2.37;;;35.30;38.70;;;;;;4995621;28;20407;-66
2022/07/17 11:21:25;;;;;;;2.67;2.50;;;34.50;38.60;;;;;;5002371;28;20190;-68
2022/07/17 11:23:57;;;;;;;3.30;3.07;;;33.60;39.10;;;;;;5014125;28;20225;-67
2022/07/17 11:26:23;;;;;;;2.60;2.50;;;32.80;40.00;;;;;;5011982;28;20186;-66
2022/07/17 11:28:50;;;;;;;2.53;2.43;;;32.10;40.90;;;;;;5014469;28;20406;-66
2022/07/17 11:31:18;;;;;;;2.50;2.30;;;31.20;40.80;;;;;;5014380;28;20202;-66
2022/07/17 11:34:08;;;;;;;2.73;2.60;;;30.80;41.30;;;;;;5014126;28;20758;-67
2022/07/17 11:36:37;;;;;;;2.77;2.50;;;30.40;42.20;;;;;;5003079;28;20803;-66
2022/07/17 11:39:12;;;;;;;2.60;2.50;;;29.90;41.90;;;;;;5013380;28;20752;-67
2022/07/17 11:41:52;;;;;;;2.57;2.47;;;29.60;43.60;;;;;;5014362;28;20445;-66
2022/07/17 11:44:20;;;;;;;2.23;2.07;;;29.40;42.60;;;;;;5013887;28;20442;-66
2022/07/17 11:46:48;;;;;;;2.10;2.00;;;29.20;42.90;;;;;;5014191;28;20425;-66
2022/07/17 11:49:28;;;;;;;2.37;2.23;;;29.10;44.00;;;;;;5014188;28;20424;-66
2022/07/17 11:51:57;;;;;;;2.87;2.60;;;29.00;44.00;;;;;;4997875;28;20535;-66
2022/07/17 11:54:22;;;;;;;2.70;2.50;;;29.00;43.60;;;;;;4993819;28;20416;-66
2022/07/17 11:56:54;;;;;;;2.07;1.97;;;28.80;44.00;;;;;;4994450;28;20422;-66
2022/07/17 11:59:31;;;;;;;4.30;3.90;;;28.80;44.10;;;;;;4994848;28;20654;-66
2022/07/17 12:02:11;;;;;;;3.20;3.00;;;28.70;43.80;;;;;;4994303;28;20481;-66
2022/07/17 12:04:52;;;;;;;2.90;2.40;;;28.60;45.10;;;;;;4993548;28;20526;-67
2022/07/17 12:07:18;;;;;;;3.67;3.37;;;28.50;43.80;;;;;;4994370;28;20434;-66
2022/07/17 12:09:44;;;;;;;3.73;3.43;;;28.50;44.80;;;;;;4994465;28;20424;-66
2022/07/17 12:12:26;;;;;;;2.20;2.10;;;28.60;44.00;;;;;;4994152;28;20439;-66
2022/07/17 12:14:58;;;;;;;2.07;1.97;;;28.50;43.00;;;;;;4994054;28;20729;-66
2022/07/17 12:17:36;;;;;;;2.70;2.53;;;28.50;44.00;;;;;;4994115;28;20392;-67
2022/07/17 12:20:04;;;;;;;2.20;2.10;;;28.50;45.30;;;;;;5011272;28;20873;-66
2022/07/17 12:22:31;;;;;;;2.07;1.97;;;28.60;43.70;;;;;;5013090;28;20398;-66
2022/07/17 12:24:57;;;;;;;3.83;3.53;;;28.60;44.50;;;;;;5013555;28;20431;-67
2022/07/17 12:27:23;;;;;;;3.30;3.00;;;28.60;42.90;;;;;;5013480;28;20887;-66
2022/07/17 12:29:49;;;;;;;2.80;2.60;;;28.60;43.40;;;;;;5013424;28;20396;-66
2022/07/17 12:32:17;;;;;;;2.20;2.10;;;28.50;44.30;;;;;;5012825;28;20962;-67
2022/07/17 12:34:47;;;;;;;2.43;2.33;;;28.50;44.40;;;;;;5013286;28;20196;-67
2022/07/17 12:37:19;;;;;;;2.03;1.93;;;28.50;44.70;;;;;;5015672;28;20431;-67
2022/07/17 12:39:46;;;;;;;2.00;1.90;;;28.60;45.10;;;;;;5017811;28;20391;-66
2022/07/17 12:42:16;;;;;;;2.20;2.10;;;28.70;44.30;;;;;;5017590;28;20402;-66
2022/07/17 12:44:42;;;;;;;2.70;2.60;;;28.80;43.70;;;;;;5017505;28;20487;-67
2022/07/17 12:47:08;;;;;;;1.93;1.83;;;28.90;45.10;;;;;;5017180;28;20469;-66
2022/07/17 12:49:34;;;;;;;1.70;1.60;;;28.90;44.20;;;;;;5017487;28;20421;-66
2022/07/17 12:52:00;;;;;;;2.10;2.00;;;29.00;44.00;;;;;;5017210;28;20740;-66
2022/07/17 12:54:26;;;;;;;2.67;2.47;;;29.10;44.40;;;;;;5016866;28;20453;-66
2022/07/17 12:56:52;;;;;;;2.07;1.93;;;29.20;44.40;;;;;;5017217;28;20488;-66
2022/07/17 12:59:18;;;;;;;2.20;2.10;;;29.20;43.80;;;;;;5017024;28;20410;-66
2022/07/17 13:01:45;;;;;;;2.20;2.10;;;29.20;44.10;;;;;;5016904;28;20432;-67
2022/07/17 13:04:11;;;;;;;2.30;2.10;;;29.20;43.20;;;;;;5016651;28;20288;-66
2022/07/17 13:06:37;;;;;;;3.47;2.00;;;29.10;43.50;;;;;;5016918;28;20562;-66
2022/07/17 13:09:03;;;;;;;2.10;1.90;;;29.20;44.10;;;;;;5017150;28;20224;-66
2022/07/17 13:11:28;;;;;;;5.00;2.20;;;29.20;43.20;;;;;;5016742;28;20205;-66
2022/07/17 13:13:54;;;;;;;2.10;2.00;;;29.30;43.10;;;;;;5016647;28;20429;-67
2022/07/17 13:16:20;;;;;;;2.17;1.97;;;29.20;42.60;;;;;;5016433;28;20201;-66
2022/07/17 13:18:46;;;;;;;2.57;2.47;;;29.30;42.20;;;;;;5016957;28;20173;-67
2022/07/17 13:21:12;;;;;;;2.40;2.30;;;29.00;42.20;;;;;;5016715;28;20511;-66
2022/07/17 13:23:38;;;;;;;2.03;1.93;;;28.80;42.30;;;;;;5016102;28;20235;-66
2022/07/17 13:26:04;;;;;;;2.00;1.90;;;28.70;42.80;;;;;;5016576;28;20496;-66
2022/07/17 13:28:30;;;;;;;2.10;2.00;;;28.60;42.80;;;;;;5016614;28;20939;-66
2022/07/17 13:30:56;;;;;;;1.90;1.80;;;28.60;42.30;;;;;;5016076;28;20481;-67
2022/07/17 13:33:22;;;;;;;1.90;1.80;;;28.50;42.40;;;;;;5015899;28;20228;-66
2022/07/17 13:35:48;;;;;;;2.33;2.23;;;28.50;41.60;;;;;;5016916;28;20387;-65
2022/07/17 13:38:14;;;;;;;2.20;2.00;;;28.50;42.20;;;;;;5016338;28;20469;-66
2022/07/17 13:40:40;;;;;;;2.20;2.10;;;28.50;42.80;;;;;;5016979;28;20177;-65
2022/07/17 13:43:06;;;;;;;2.10;2.00;;;28.50;43.70;;;;;;5015633;28;20438;-67
2022/07/17 13:45:32;;;;;;;1.97;1.87;;;28.60;43.10;;;;;;5016408;28;20426;-67
2022/07/17 13:47:58;;;;;;;2.13;2.03;;;28.70;44.20;;;;;;5015309;28;20389;-65
2022/07/17 13:50:24;;;;;;;2.23;2.13;;;28.70;41.40;;;;;;5015072;28;20253;-65
2022/07/17 13:52:50;;;;;;;1.97;1.87;;;28.60;41.90;;;;;;5015763;28;20554;-65
2022/07/17 13:55:15;;;;;;;1.40;1.40;;;28.70;42.30;;;;;;5016012;28;20413;-67
2022/07/17 13:57:42;;;;;;;1.80;1.70;;;28.70;41.10;;;;;;5015499;28;20203;-67
2022/07/17 14:00:09;;;;;;;2.10;2.00;;;28.70;41.40;;;;;;5016057;28;20559;-66
2022/07/17 14:02:36;;;;;;;2.00;1.90;;;28.80;41.30;;;;;;5016040;28;20809;-67
2022/07/17 14:05:03;;;;;;;1.80;1.70;;;28.70;40.90;;;;;;5015704;28;20430;-67
2022/07/17 14:07:29;;;;;;;2.40;2.00;;;28.70;40.10;;;;;;5015592;28;20415;-66
2022/07/17 14:09:54;;;;;;;1.93;1.83;;;28.60;40.50;;;;;;5015720;28;20423;-67
2022/07/17 14:12:20;;;;;;;3.23;1.70;;;28.60;40.20;;;;;;5015177;28;20203;-66
2022/07/17 14:14:45;;;;;;;1.87;1.77;;;28.60;40.40;;;;;;5015935;28;20204;-63
2022/07/17 14:17:11;;;;;;;1.80;1.70;;;28.60;40.60;;;;;;5015801;28;20543;-64
2022/07/17 14:19:37;;;;;;;1.77;1.67;;;28.70;40.90;;;;;;5015590;28;20204;-63
2022/07/17 14:22:03;;;;;;;2.30;1.77;;;28.70;41.60;;;;;;5015377;28;20181;-64
2022/07/17 14:24:29;;;;;;;1.67;1.57;;;28.80;41.40;;;;;;5015103;28;20489;-64
2022/07/17 14:26:55;;;;;;;1.90;1.80;;;28.90;41.10;;;;;;5013335;28;20948;-63
2022/07/17 14:29:20;;;;;;;1.57;1.57;;;29.00;40.90;;;;;;5014709;28;20182;-63
2022/07/17 14:31:46;;;;;;;2.10;2.00;;;29.10;40.00;;;;;;5015399;28;20244;-64
2022/07/17 14:34:12;;;;;;;2.00;1.90;;;29.20;39.50;;;;;;5015047;28;20232;-63
2022/07/17 14:36:39;;;;;;;2.40;2.20;;;29.20;39.90;;;;;;5015291;28;20383;-64
2022/07/17 14:39:04;;;;;;;2.77;1.80;;;29.10;40.20;;;;;;5015289;28;20381;-68
2022/07/17 14:41:30;;;;;;;1.73;1.63;;;29.00;40.60;;;;;;5014928;28;20420;-66
2022/07/17 14:43:56;;;;;;;1.90;1.80;;;28.90;40.10;;;;;;5013237;28;20303;-67
2022/07/17 14:46:22;;;;;;;2.00;1.90;;;28.90;40.20;;;;;;5015136;28;20999;-68
2022/07/17 14:48:47;;;;;;;2.20;2.07;;;28.90;39.50;;;;;;5015301;28;20173;-68
2022/07/17 14:51:13;;;;;;;1.70;1.60;;;28.80;39.70;;;;;;5014982;28;20206;-68
2022/07/17 14:53:38;;;;;;;1.73;1.63;;;28.80;40.00;;;;;;5014757;28;20485;-67
2022/07/17 14:56:05;;;;;;;2.43;2.27;;;28.80;39.70;;;;;;5014637;28;20184;-67
2022/07/17 14:58:31;;;;;;;1.90;1.80;;;28.80;40.50;;;;;;5015005;28;20636;-67
2022/07/17 15:00:57;;;;;;;1.80;1.70;;;28.80;41.30;;;;;;5015033;28;20458;-68
2022/07/17 15:03:22;;;;;;;1.83;1.73;;;28.80;40.60;;;;;;5014440;28;20187;-68
2022/07/17 15:05:48;;;;;;;1.90;1.80;;;28.70;41.30;;;;;;5014589;28;20659;-67
2022/07/17 15:08:13;;;;;;;1.83;1.63;;;28.60;41.10;;;;;;5014262;28;20187;-68
2022/07/17 15:10:39;;;;;;;2.57;1.80;;;28.70;41.70;;;;;;5014128;28;20184;-68
2022/07/17 15:13:05;;;;;;;2.20;2.00;;;28.60;41.20;;;;;;5014208;28;20169;-67
2022/07/17 15:15:30;;;;;;;2.30;2.20;;;28.60;41.60;;;;;;5014570;28;20210;-68
2022/07/17 15:17:57;;;;;;;1.70;1.60;;;28.60;42.60;;;;;;5014592;28;20181;-69
2022/07/17 15:20:23;;;;;;;2.30;1.70;;;28.60;41.80;;;;;;5012495;28;20165;-68
2022/07/17 15:22:49;;;;;;;2.00;1.90;;;28.60;41.60;;;;;;5012108;28;20965;-67
2022/07/17 15:25:14;;;;;;;1.60;1.50;;;28.60;41.80;;;;;;5012241;28;20623;-66
2022/07/17 15:27:40;;;;;;;1.80;1.70;;;28.60;42.40;;;;;;5012640;28;20268;-65
2022/07/17 15:30:06;;;;;;;1.97;1.87;;;28.70;42.10;;;;;;5012284;28;20252;-69
2022/07/17 15:32:33;;;;;;;1.60;1.50;;;28.70;42.10;;;;;;5012006;28;20563;-69
2022/07/17 15:35:00;;;;;;;1.90;1.80;;;28.70;43.20;;;;;;5013601;28;20482;-68
2022/07/17 15:37:25;;;;;;;2.33;2.13;;;28.70;42.30;;;;;;5014142;28;20720;-67
2022/07/17 15:39:51;;;;;;;2.03;1.93;;;28.60;42.30;;;;;;5014104;28;20384;-68
2022/07/17 15:42:17;;;;;;;1.77;1.67;;;28.50;43.00;;;;;;5013755;28;20217;-68
2022/07/17 15:44:43;;;;;;;1.70;1.60;;;28.60;43.20;;;;;;5013985;28;20410;-68
2022/07/17 15:47:08;;;;;;;3.67;1.77;;;28.50;42.40;;;;;;5013383;28;20176;-68
2022/07/17 15:49:34;;;;;;;2.10;1.93;;;28.50;43.10;;;;;;5014049;28;20176;-68
2022/07/17 15:52:00;;;;;;;1.60;1.60;;;28.50;44.20;;;;;;5013869;28;20667;-67
2022/07/17 15:54:25;;;;;;;2.03;1.93;;;28.50;43.70;;;;;;5012168;28;20188;-67
2022/07/17 15:56:51;;;;;;;1.80;1.70;;;28.50;43.00;;;;;;5013814;28;20179;-68
2022/07/17 15:59:16;;;;;;;1.80;1.70;;;28.60;43.40;;;;;;5014015;28;20170;-67
2022/07/17 16:01:43;;;;;;;1.90;1.80;;;28.50;42.80;;;;;;5013542;28;20188;-68
2022/07/17 16:04:08;;;;;;;1.80;1.70;;;28.50;42.50;;;;;;5013320;28;20231;-67
2022/07/17 16:06:34;;;;;;;2.43;1.73;;;28.50;42.80;;;;;;5013623;28;20401;-67
2022/07/17 16:09:00;;;;;;;1.77;1.67;;;28.40;42.40;;;;;;5013650;28;20302;-68
2022/07/17 16:11:26;;;;;;;3.33;2.73;;;28.30;42.40;;;;;;5013263;28;20221;-68
2022/07/17 16:13:52;;;;;;;2.20;2.10;;;28.30;43.00;;;;;;5013230;28;20330;-66
2022/07/17 16:16:17;;;;;;;1.73;1.63;;;28.30;43.20;;;;;;5013540;28;20483;-68
2022/07/17 16:18:43;;;;;;;1.90;1.80;;;28.30;43.80;;;;;;5013647;28;20214;-68
2022/07/17 16:21:10;;;;;;;1.80;1.70;;;28.30;43.40;;;;;;5013967;28;20657;-68
2022/07/17 16:23:37;;;;;;;1.60;1.60;;;28.30;43.30;;;;;;5013223;28;20408;-67
2022/07/17 16:26:03;;;;;;;1.87;1.77;;;28.30;43.30;;;;;;5013079;28;20770;-67
2022/07/17 16:28:29;;;;;;;2.10;1.67;;;28.30;44.10;;;;;;5013554;28;20406;-68
2022/07/17 16:30:55;;;;;;;1.87;1.77;;;28.20;43.90;;;;;;5013481;28;20445;-68
2022/07/17 16:33:21;;;;;;;3.03;1.87;;;28.30;43.80;;;;;;5012966;28;20183;-68
2022/07/17 16:35:48;;;;;;;2.07;1.97;;;28.20;43.70;;;;;;5013407;28;20388;-68
2022/07/17 16:38:14;;;;;;;1.90;1.80;;;28.10;43.70;;;;;;5013363;28;20395;-68
2022/07/17 16:40:40;;;;;;;3.43;1.93;;;28.10;43.80;;;;;;5013084;28;20505;-67
2022/07/17 16:43:06;;;;;;;2.00;1.90;;;28.10;43.40;;;;;;5013009;28;20406;-68
2022/07/17 16:45:32;;;;;;;1.37;1.37;;;28.00;43.40;;;;;;5013502;28;20410;-67
2022/07/17 16:47:58;;;;;;;1.80;1.70;;;28.00;43.30;;;;;;5013419;28;20877;-67
2022/07/17 16:50:26;;;;;;;1.97;1.87;;;28.00;43.30;;;;;;5013321;28;20172;-68